Airfield :







YOU CAN JOIN US ON...

 
LOGIN :

Register | Disclaimer

   EN    FR    IT 

 









Legend :    VFR   Marginal VFR   IFR   Intensive IFR   Very Intensive IFR
Visi :
Ceiling :
>= 8 km
>= 3000ft
5 to 8 km
1000 to 3000 ft
1500m to 5 km
500 to 1000 ft
800 to 1500m
200 to 500 ft
< 800m
< 200 ft
Symbols :   Thunderstorms  Fog  Heavy snow  Heavy precipitations  Wind > 20 kt






- Airport Elevation : 118 ft
- IATA code : YUL


CYUL - Montréal - Pierre-Elliott-Trudeau Int.

CURRENT METAR :
  • 170600Z 05012G17KT 12SM -RA FEW017 BKN042 OVC060 09/08 A2944 RMK SF1SC5SC3 SF TR /R12/ SLP973

EXPIRED METARs :
  • 170500Z 05012KT 12SM -RA FEW038 OVC057 09/08 A2947 RMK SC1SC8 SC TR PRESFR SLP981
  • 170415Z 07013KT 12SM -RA SCT037 OVC058 10/08 A2950 RMK SC3SC5 PRESFR SLP993
  • 170400Z 07012KT 12SM -RA SCT038 OVC057 10/08 A2952 RMK SC3SC5 PRESFR SLP999

TAF TAF CYUL
Valid from the 17 at 06:00 until the 18 at 06:00 UTC


170540Z 1706/1806 06012KT P6SM -RA OVC050
TEMPO 1706/1709 5SM RA BR FEW012 OVC040
PROB30 1706/1709 BKN009
FM170900 03015G30KT 6SM -RA SCT010 OVC040
TEMPO 1709/1715 2SM +RA BR BKN008 OVC030
BECMG 1711/1713 02022G38KT
FM171500 01020G32KT P6SM -RA SCT008 OVC015
TEMPO 1715/1720 4SM -RA BR
PROB30 1715/1720 OVC008
FM172000 33015G25KT P6SM -RA OVC020
FM180000 32012G22KT P6SM -SHRA BKN020 OVC040 RMK NXT FCST BY 170900Z
ATIS : ENG : +1 514-633-3037 FRA : +1 514-633-3034



MET'MAP, your aeronautical weather chart ! - Copyright ORBIFLY December 2007 - Disclaimer

ORBIFLY MET'MAP TEAM :

Programming & Development : Alexandra Zaïnal
Concept & Development : Baudouin d'Aumeries
Co-Development & Prog : Marc-Olivier Méhu
Technical & hardware support : Manuel Goepfert

Contact : metmap@orbifly.com




SOURCES & CREDITS :

   NOAA